Time;durP1;ratioP1;P1;durP2;ratioP2;P2;SDS_P1;SDS_P2;PMS_P1;PMS_P2;Temp;Humidity;BMP_temperature;BMP_pressure;BME280_temperature;BME280_humidity;BME280_pressure;Samples;Min_cycle;Max_cycle;Signal;HPM_P1;HPM_P2
2023/08/04 00:00:29;;;;;;;1.10;1.10;;;;;;;28.83;68.80;98858.03;5052673;28;20322;-67
2023/08/04 00:02:57;;;;;;;0.80;0.80;;;;;;;28.91;68.47;98855.34;5052228;28;20311;-67
2023/08/04 00:05:25;;;;;;;1.37;1.27;;;;;;;28.93;68.13;98858.63;5052832;28;20197;-67
2023/08/04 00:07:52;;;;;;;0.90;0.90;;;;;;;28.91;68.42;98855.34;5052590;28;20605;-67
2023/08/04 00:10:19;;;;;;;0.70;0.70;;;;;;;28.85;69.29;98856.06;5052143;28;20890;-67
2023/08/04 00:12:46;;;;;;;1.20;1.10;;;;;;;28.83;69.34;98863.31;5052553;28;20197;-67
2023/08/04 00:15:11;;;;;;;0.90;0.90;;;;;;;28.83;69.35;98858.03;5051778;28;20197;-67
2023/08/04 00:17:39;;;;;;;1.17;1.07;;;;;;;28.83;68.87;98860.69;5038756;28;20291;-67
2023/08/04 00:20:08;;;;;;;1.37;1.27;;;;;;;28.78;69.12;98855.13;5032255;28;20295;-67
2023/08/04 00:22:36;;;;;;;0.90;0.90;;;;;;;28.73;69.49;98857.44;5031437;28;20224;-67
2023/08/04 00:25:04;;;;;;;0.93;0.93;;;;;;;28.71;69.84;98854.16;5032935;28;20201;-67
2023/08/04 00:27:30;;;;;;;1.93;1.40;;;;;;;28.72;69.26;98863.72;5032167;28;20201;-67
2023/08/04 00:29:57;;;;;;;0.90;0.90;;;;;;;28.65;69.25;98860.09;5032005;28;20379;-67
2023/08/04 00:32:24;;;;;;;1.17;1.07;;;;;;;28.67;69.45;98860.78;5031780;28;20197;-66
2023/08/04 00:34:51;;;;;;;0.83;0.83;;;;;;;28.65;69.08;98860.97;5032290;28;20198;-67
2023/08/04 00:37:17;;;;;;;1.30;1.23;;;;;;;28.60;69.82;98857.97;5031972;28;20201;-67
2023/08/04 00:39:46;;;;;;;0.87;0.87;;;;;;;28.66;69.31;98864.41;5029168;28;20288;-67
2023/08/04 00:42:12;;;;;;;0.90;0.90;;;;;;;28.67;69.51;98863.41;5031526;28;20197;-66
2023/08/04 00:44:39;;;;;;;0.83;0.83;;;;;;;28.71;69.04;98862.09;5030935;28;20201;-67
2023/08/04 00:47:07;;;;;;;1.00;1.00;;;;;;;28.74;69.23;98856.44;5031909;28;20681;-67
2023/08/04 00:49:34;;;;;;;0.70;0.70;;;;;;;28.76;68.79;98862.38;5031612;28;20715;-67
2023/08/04 00:52:01;;;;;;;1.10;1.10;;;;;;;28.77;69.11;98864.00;5036288;28;20197;-66
2023/08/04 00:54:28;;;;;;;1.33;1.27;;;;;;;28.79;68.78;98866.50;5030058;28;20199;-67
2023/08/04 00:56:56;;;;;;;1.07;0.97;;;;;;;28.77;68.53;98866.66;5030488;28;20251;-67
2023/08/04 00:59:23;;;;;;;1.03;0.97;;;;;;;28.80;68.85;98868.13;5036472;28;20210;-67
2023/08/04 01:01:50;;;;;;;1.60;1.47;;;;;;;28.80;68.63;98868.94;5031905;28;20228;-66
2023/08/04 01:04:18;;;;;;;1.37;1.27;;;;;;;28.83;69.04;98871.22;5031597;28;20218;-67
2023/08/04 01:07:00;;;;;;;1.13;1.13;;;;;;;28.85;68.81;98871.06;5029938;28;20633;-66
2023/08/04 01:09:36;;;;;;;1.13;1.10;;;;;;;28.81;68.61;98872.41;5029827;28;20204;-67
2023/08/04 01:12:12;;;;;;;0.73;0.73;;;;;;;28.80;68.92;98874.22;5021363;28;20205;-67
2023/08/04 01:14:39;;;;;;;1.43;0.97;;;;;;;28.77;68.93;98871.94;5018972;28;20686;-66
2023/08/04 01:17:25;;;;;;;0.87;0.87;;;;;;;28.74;69.17;98876.72;5036703;28;20751;-66
2023/08/04 01:19:53;;;;;;;1.30;1.23;;;;;;;28.78;68.81;98870.13;5037693;28;20198;-66
2023/08/04 01:22:22;;;;;;;0.97;0.97;;;;;;;28.74;69.10;98877.56;5036904;28;20262;-66
2023/08/04 01:24:49;;;;;;;1.53;1.43;;;;;;;28.68;69.08;98886.19;5037072;28;20275;-67
2023/08/04 01:27:19;;;;;;;0.83;0.83;;;;;;;28.59;69.28;98877.47;5037559;28;20204;-67
2023/08/04 01:29:47;;;;;;;1.20;1.10;;;;;;;28.61;69.43;98882.53;5034937;28;20229;-66
2023/08/04 01:32:14;;;;;;;0.80;0.80;;;;;;;28.59;69.36;98881.91;5042847;28;20196;-67
2023/08/04 01:34:44;;;;;;;2.57;0.93;;;;;;;28.57;69.90;98884.72;5041695;28;20565;-66
2023/08/04 01:37:12;;;;;;;2.33;1.13;;;;;;;28.52;69.97;98888.88;5034766;28;20215;-67
2023/08/04 01:39:40;;;;;;;1.90;1.00;;;;;;;28.49;70.70;98887.41;5037508;28;20280;-67
2023/08/04 01:42:07;;;;;;;1.17;1.17;;;;;;;28.51;70.67;98895.13;5038357;28;20200;-66
2023/08/04 01:44:34;;;;;;;0.77;0.77;;;;;;;28.53;70.01;98882.59;5035805;28;20633;-66
2023/08/04 01:47:01;;;;;;;2.10;1.43;;;;;;;28.53;70.60;98887.88;5038186;28;20231;-67
2023/08/04 01:49:28;;;;;;;0.97;0.90;;;;;;;28.52;70.14;98896.78;5034495;28;20197;-67
2023/08/04 01:51:55;;;;;;;0.70;0.70;;;;;;;28.50;70.44;98896.94;5037395;28;20205;-67
2023/08/04 01:54:21;;;;;;;0.80;0.80;;;;;;;28.50;69.80;98904.03;5036371;28;20275;-67
2023/08/04 01:56:49;;;;;;;0.93;0.93;;;;;;;28.47;70.72;98899.09;5040262;28;20200;-67
2023/08/04 01:59:16;;;;;;;1.57;1.47;;;;;;;28.43;70.03;98903.09;5040777;28;20201;-67
2023/08/04 02:01:43;;;;;;;2.77;1.30;;;;;;;28.39;70.21;98901.78;5035264;28;20263;-67
2023/08/04 02:04:10;;;;;;;1.20;1.20;;;;;;;28.37;70.56;98907.22;5038226;28;20216;-66
2023/08/04 02:06:36;;;;;;;1.20;1.20;;;;;;;28.37;71.15;98903.78;5034436;28;20262;-66
2023/08/04 02:09:04;;;;;;;1.37;1.00;;;;;;;28.35;71.12;98911.84;5038671;28;20208;-66
2023/08/04 02:11:31;;;;;;;1.20;1.10;;;;;;;28.36;70.51;98908.22;5035270;28;20243;-66
2023/08/04 02:14:00;;;;;;;1.43;1.00;;;;;;;28.36;70.88;98912.66;5038656;28;20240;-67
2023/08/04 02:16:26;;;;;;;0.80;0.80;;;;;;;28.37;70.98;98914.31;5035018;28;20232;-67
2023/08/04 02:19:03;;;;;;;1.10;1.03;;;;;;;28.31;70.49;98912.34;5034854;28;20201;-66
2023/08/04 02:21:29;;;;;;;1.53;1.10;;;;;;;28.28;70.67;98910.03;5035610;28;20577;-67
2023/08/04 02:23:56;;;;;;;1.37;1.37;;;;;;;28.22;71.10;98918.63;5037836;28;20709;-66
2023/08/04 02:26:23;;;;;;;1.20;1.20;;;;;;;28.17;71.68;98925.22;5039609;28;20208;-66
2023/08/04 02:28:52;;;;;;;1.50;1.40;;;;;;;28.17;72.06;98930.50;5036470;28;20251;-67
2023/08/04 02:31:22;;;;;;;1.00;1.00;;;;;;;28.11;72.29;98931.19;5036212;28;20220;-66
2023/08/04 02:33:48;;;;;;;0.90;0.90;;;;;;;28.11;72.77;98930.38;5033502;28;20197;-66
2023/08/04 02:36:17;;;;;;;3.60;1.00;;;;;;;28.06;73.12;98928.25;5036255;28;20203;-67
2023/08/04 02:38:44;;;;;;;0.80;0.80;;;;;;;27.95;73.78;98925.91;5035183;28;20209;-66
2023/08/04 02:41:11;;;;;;;1.33;1.10;;;;;;;27.79;74.05;98911.97;5038536;28;20201;-66
2023/08/04 02:43:38;;;;;;;0.90;0.90;;;;;;;27.86;74.12;98931.38;5039601;28;20213;-67
2023/08/04 02:46:05;;;;;;;3.33;1.17;;;;;;;27.80;75.03;98927.59;5038264;28;20201;-66
2023/08/04 02:48:33;;;;;;;1.00;1.00;;;;;;;27.76;74.99;98928.91;5040941;28;20198;-67
2023/08/04 02:51:02;;;;;;;1.27;1.17;;;;;;;27.76;75.38;98925.44;5037418;28;20220;-67
2023/08/04 02:53:30;;;;;;;0.97;0.97;;;;;;;27.72;75.60;98925.00;5034246;28;20193;-67
2023/08/04 02:55:56;;;;;;;1.70;1.00;;;;;;;27.73;75.90;98937.16;5037245;28;20197;-67
2023/08/04 02:58:24;;;;;;;1.10;1.10;;;;;;;27.70;75.48;98932.22;5035165;28;20201;-66
2023/08/04 03:00:51;;;;;;;0.90;0.90;;;;;;;27.76;75.91;98949.16;5036350;28;20284;-67
2023/08/04 03:03:19;;;;;;;1.10;1.10;;;;;;;27.68;75.93;98941.28;5036402;28;20212;-67
2023/08/04 03:05:47;;;;;;;2.23;1.30;;;;;;;27.65;76.63;98942.44;5032638;28;20197;-67
2023/08/04 03:08:14;;;;;;;1.77;1.23;;;;;;;27.63;76.72;98947.84;5034515;28;20201;-67
2023/08/04 03:10:41;;;;;;;0.73;0.73;;;;;;;27.47;76.53;98925.97;5033196;28;20194;-66
2023/08/04 03:13:08;;;;;;;1.10;1.10;;;;;;;27.58;77.09;98941.44;5038199;28;20204;-67
2023/08/04 03:15:35;;;;;;;1.30;1.30;;;;;;;27.55;76.86;98939.16;5038563;28;20693;-67
2023/08/04 03:18:02;;;;;;;1.10;1.10;;;;;;;27.53;77.00;98943.72;5040683;28;20282;-67
2023/08/04 03:20:29;;;;;;;1.37;1.30;;;;;;;27.52;77.35;98952.66;5044198;28;20209;-67
2023/08/04 03:22:57;;;;;;;0.90;0.90;;;;;;;27.46;77.37;98951.50;5041566;28;20204;-67
2023/08/04 03:25:25;;;;;;;0.90;0.80;;;;;;;27.50;77.22;98952.78;5036522;28;20217;-66
2023/08/04 03:27:51;;;;;;;1.37;1.37;;;;;;;27.54;77.31;98955.94;5039572;28;20194;-66
2023/08/04 03:30:18;;;;;;;1.47;1.20;;;;;;;27.56;77.06;98956.59;5038607;28;20215;-67
2023/08/04 03:32:45;;;;;;;1.00;1.00;;;;;;;27.58;77.33;98954.63;5038480;28;20202;-66
2023/08/04 03:35:12;;;;;;;0.97;0.97;;;;;;;27.63;76.90;98960.19;5040439;28;20208;-66
2023/08/04 03:37:38;;;;;;;1.00;1.00;;;;;;;27.63;77.25;98961.03;5038466;28;20193;-66
2023/08/04 03:40:08;;;;;;;0.93;0.93;;;;;;;27.67;76.68;98958.88;5040297;28;20204;-67
2023/08/04 03:42:37;;;;;;;1.57;1.20;;;;;;;27.68;77.23;98964.97;5038230;28;20225;-66
2023/08/04 03:45:05;;;;;;;1.07;1.03;;;;;;;27.70;77.02;98969.09;5041159;28;20225;-67
2023/08/04 03:47:32;;;;;;;0.90;0.90;;;;;;;27.73;76.83;98974.03;5049191;28;20193;-66
2023/08/04 03:49:58;;;;;;;1.40;1.40;;;;;;;27.75;76.96;98974.72;5040340;28;20292;-67
2023/08/04 03:52:25;;;;;;;1.17;1.17;;;;;;;27.76;76.89;98978.97;5035877;28;20209;-66
2023/08/04 03:54:52;;;;;;;0.97;0.97;;;;;;;27.75;77.45;98987.88;5043707;28;20220;-67
2023/08/04 03:57:20;;;;;;;1.10;1.10;;;;;;;27.79;76.30;98989.16;5040862;28;20751;-66
2023/08/04 03:59:47;;;;;;;1.20;1.20;;;;;;;27.81;76.20;98992.47;5041441;28;20578;-66
2023/08/04 04:02:13;;;;;;;0.77;0.77;;;;;;;27.78;75.95;98998.09;5038901;28;20455;-67
2023/08/04 04:04:40;;;;;;;0.90;0.90;;;;;;;27.64;76.65;98991.66;5047897;28;20213;-66
2023/08/04 04:07:07;;;;;;;1.00;1.00;;;;;;;27.58;76.76;98978.31;5052264;28;20205;-67
2023/08/04 04:09:34;;;;;;;0.87;0.87;;;;;;;27.70;76.88;98990.16;5051924;28;20204;-66
2023/08/04 04:12:01;;;;;;;2.50;1.50;;;;;;;27.72;77.13;98993.47;5046505;28;20197;-67
2023/08/04 04:14:29;;;;;;;1.57;1.30;;;;;;;27.77;76.61;98996.41;5036947;28;20201;-67
2023/08/04 04:16:56;;;;;;;1.13;1.13;;;;;;;27.75;77.14;98993.16;5047019;28;20283;-67
2023/08/04 04:19:23;;;;;;;7.27;1.20;;;;;;;27.72;76.89;98988.22;5043770;28;20649;-67
2023/08/04 04:21:50;;;;;;;1.40;1.30;;;;;;;27.67;77.36;98993.13;5039063;28;20197;-67
2023/08/04 04:24:17;;;;;;;1.40;1.30;;;;;;;27.76;77.64;98988.66;5045710;28;20274;-67
2023/08/04 04:26:44;;;;;;;1.50;1.40;;;;;;;27.77;77.34;98991.16;5046462;28;20267;-66
2023/08/04 04:29:11;;;;;;;1.30;1.20;;;;;;;27.77;77.16;98995.59;5041010;28;20205;-67
2023/08/04 04:31:39;;;;;;;1.67;1.57;;;;;;;27.80;77.32;98996.09;5037355;28;20197;-67
2023/08/04 04:34:05;;;;;;;1.60;1.00;;;;;;;27.85;76.77;98992.97;5040685;28;20192;-66
2023/08/04 04:36:32;;;;;;;0.80;0.80;;;;;;;27.88;76.58;98987.38;5042543;28;20193;-67
2023/08/04 04:38:59;;;;;;;1.47;1.37;;;;;;;28.01;76.76;98990.31;5040037;28;20194;-66
2023/08/04 04:41:27;;;;;;;1.83;1.67;;;;;;;28.19;76.00;99001.53;5038803;28;20255;-66
2023/08/04 04:43:54;;;;;;;1.10;1.10;;;;;;;28.34;74.96;98999.00;5044181;28;20263;-66
2023/08/04 04:46:20;;;;;;;1.17;1.13;;;;;;;28.45;74.51;99003.94;5037871;28;20209;-66
2023/08/04 04:48:48;;;;;;;1.40;1.30;;;;;;;28.52;74.18;98997.00;5037830;28;20210;-67
2023/08/04 04:51:15;;;;;;;1.50;1.50;;;;;;;28.70;75.13;99005.53;5038463;28;20212;-67
2023/08/04 04:53:42;;;;;;;1.20;1.20;;;;;;;28.85;74.00;99003.81;5036239;28;20202;-63
2023/08/04 04:56:09;;;;;;;1.17;1.13;;;;;;;28.95;73.49;99014.19;5035668;28;20627;-63
2023/08/04 04:58:35;;;;;;;3.40;1.60;;;;;;;29.10;73.32;99018.53;5035797;28;20692;-64
2023/08/04 05:01:03;;;;;;;2.67;1.53;;;;;;;29.29;72.97;99021.75;5041478;28;20310;-63
2023/08/04 05:03:30;;;;;;;1.30;1.23;;;;;;;29.47;71.27;99015.19;5045916;28;20231;-63
2023/08/04 05:05:58;;;;;;;1.40;1.40;;;;;;;29.60;69.74;99026.00;5049947;28;20270;-65
2023/08/04 05:08:25;;;;;;;1.40;1.30;;;;;;;29.73;70.43;99022.78;5044917;28;20669;-63
2023/08/04 05:10:52;;;;;;;5.90;1.30;;;;;;;29.78;69.98;99004.56;5043683;28;20204;-64
2023/08/04 05:13:19;;;;;;;1.17;1.13;;;;;;;30.07;69.02;99025.00;5046523;28;20193;-61
2023/08/04 05:15:47;;;;;;;1.50;1.40;;;;;;;30.19;66.75;99027.03;5041319;28;20201;-64
2023/08/04 05:18:14;;;;;;;1.20;1.20;;;;;;;30.34;66.36;99023.59;5043166;28;20200;-63
2023/08/04 05:20:41;;;;;;;1.25;1.25;;;;;;;30.43;65.40;99023.34;5041331;28;20251;-63
2023/08/04 05:23:09;;;;;;;1.20;1.20;;;;;;;30.31;63.88;99023.97;5045009;28;20254;-62
2023/08/04 05:25:35;;;;;;;1.00;1.00;;;;;;;30.33;65.02;99020.13;5045454;28;20219;-63
2023/08/04 05:28:21;;;;;;;1.70;1.30;;;;;;;30.48;64.54;99020.16;5044907;28;20207;-63
2023/08/04 05:30:48;;;;;;;1.90;1.20;;;;;;;30.55;63.75;99023.72;5042903;28;20721;-62
2023/08/04 05:33:15;;;;;;;1.60;1.50;;;;;;;30.67;64.22;99024.88;5044539;28;20197;-63
2023/08/04 05:35:45;;;;;;;2.60;1.55;;;;;;;30.83;62.61;99032.63;5043286;28;20242;-63
2023/08/04 05:38:14;;;;;;;1.40;1.30;;;;;;;30.90;61.88;99019.50;5048565;28;20197;-63
2023/08/04 05:40:43;;;;;;;1.80;1.70;;;;;;;31.04;60.82;99027.44;5042790;28;20223;-62
2023/08/04 05:43:10;;;;;;;1.80;1.73;;;;;;;31.05;59.54;99034.38;5045063;28;20200;-63
2023/08/04 05:45:37;;;;;;;1.05;1.05;;;;;;;30.98;60.44;99035.31;5039398;28;20216;-62
2023/08/04 05:48:05;;;;;;;1.65;1.55;;;;;;;31.00;60.30;99036.75;5034912;28;20216;-64
2023/08/04 05:50:32;;;;;;;1.35;1.25;;;;;;;31.11;59.24;99033.66;5036791;28;20270;-63
2023/08/04 05:52:59;;;;;;;1.80;1.15;;;;;;;31.26;59.29;99030.13;5038617;28;20208;-63
2023/08/04 05:55:27;;;;;;;1.85;1.75;;;;;;;31.36;59.88;99031.47;5046195;28;20616;-63
2023/08/04 05:57:56;;;;;;;1.23;1.23;;;;;;;31.54;59.70;99023.13;5043245;28;20200;-63
2023/08/04 06:00:24;;;;;;;2.03;1.33;;;;;;;31.62;58.20;99036.25;5041437;28;20296;-63
2023/08/04 06:02:51;;;;;;;1.42;1.33;;;;;;;31.74;56.98;99034.72;5048287;28;20649;-63
2023/08/04 06:05:17;;;;;;;1.42;1.33;;;;;;;31.67;57.52;99036.50;5045538;28;20589;-63
2023/08/04 06:07:45;;;;;;;1.10;1.10;;;;;;;31.84;57.83;99029.94;5042131;28;20334;-64
2023/08/04 06:10:12;;;;;;;0.95;0.95;;;;;;;32.04;56.44;99035.44;5041355;28;20261;-64
2023/08/04 06:12:40;;;;;;;1.00;1.00;;;;;;;32.18;56.49;99022.06;5036940;28;20204;-63
2023/08/04 06:15:07;;;;;;;1.17;1.17;;;;;;;32.16;55.98;99024.09;5045630;28;20208;-66
2023/08/04 06:17:34;;;;;;;2.38;1.45;;;;;;;32.30;56.00;99027.69;5045981;28;20224;-63
2023/08/04 06:20:01;;;;;;;1.50;1.40;;;;;;;32.49;56.43;99024.31;5044144;28;20204;-63
2023/08/04 06:22:28;;;;;;;1.20;1.10;;;;;;;32.80;54.93;99028.41;5041358;28;20201;-64
2023/08/04 06:24:54;;;;;;;1.40;1.30;;;;;;;32.90;54.23;99029.66;5042945;28;20574;-63
2023/08/04 06:27:21;;;;;;;1.08;1.08;;;;;;;33.04;52.52;99042.00;5038769;28;20208;-64
2023/08/04 06:29:49;;;;;;;1.33;1.20;;;;;;;33.07;53.35;99038.09;5046914;28;20692;-64
2023/08/04 06:32:16;;;;;;;2.45;1.27;;;;;;;33.08;51.91;99035.28;5035574;28;20200;-64
2023/08/04 06:34:43;;;;;;;1.17;1.10;;;;;;;33.28;52.75;99036.16;5039404;28;20678;-64
2023/08/04 06:37:10;;;;;;;1.45;1.23;;;;;;;33.19;51.78;99036.53;5042206;28;20216;-63
2023/08/04 06:39:36;;;;;;;4.25;1.40;;;;;;;32.94;52.24;99036.22;5034891;28;20204;-63
2023/08/04 06:42:04;;;;;;;1.10;1.10;;;;;;;32.94;51.68;99030.91;5037202;28;20204;-63
2023/08/04 06:44:31;;;;;;;1.42;1.38;;;;;;;33.41;51.49;99039.91;5039599;28;20224;-63
2023/08/04 06:46:59;;;;;;;2.78;1.40;;;;;;;33.78;50.40;99034.03;5034438;28;20210;-63
2023/08/04 06:49:25;;;;;;;1.10;1.10;;;;;;;33.97;49.33;99030.56;5039040;28;20237;-67
2023/08/04 06:51:52;;;;;;;1.55;1.45;;;;;;;34.23;49.88;99029.75;5035492;28;20197;-62
2023/08/04 06:54:19;;;;;;;1.30;1.20;;;;;;;34.37;48.01;99028.72;5042404;28;20876;-70
2023/08/04 06:56:46;;;;;;;1.90;0.90;;;;;;;34.44;48.73;99020.72;5040464;28;20217;-71
2023/08/04 06:59:13;;;;;;;1.15;1.13;;;;;;;34.36;48.80;99028.91;5044221;28;20203;-71
2023/08/04 07:01:39;;;;;;;1.50;1.40;;;;;;;34.23;48.38;99025.25;5043395;28;20211;-71
2023/08/04 07:04:08;;;;;;;1.20;1.08;;;;;;;34.36;47.28;99024.41;5043587;28;20466;-61
2023/08/04 07:06:34;;;;;;;1.15;1.10;;;;;;;34.54;45.50;99021.91;5051826;28;20223;-62
2023/08/04 07:09:02;;;;;;;1.30;1.20;;;;;;;34.78;47.10;99018.59;5046858;28;20209;-62
2023/08/04 07:11:29;;;;;;;1.35;1.27;;;;;;;35.04;46.13;99025.66;5043165;28;20308;-61
2023/08/04 07:13:56;;;;;;;1.27;1.17;;;;;;;34.77;45.24;99016.13;5045655;28;20220;-62
2023/08/04 07:16:23;;;;;;;1.33;1.20;;;;;;;34.74;46.12;99013.91;5047368;28;20462;-64
2023/08/04 07:18:50;;;;;;;1.63;1.25;;;;;;;35.19;47.32;99026.22;5045995;28;20197;-65
2023/08/04 07:21:18;;;;;;;1.13;1.02;;;;;;;35.52;43.96;99019.88;5052138;28;20720;-65
2023/08/04 07:23:45;;;;;;;1.42;1.33;;;;;;;35.60;43.64;99022.34;5049197;28;20204;-65
2023/08/04 07:26:12;;;;;;;1.35;1.25;;;;;;;35.54;43.77;99025.84;5051692;28;20220;-64
2023/08/04 07:28:39;;;;;;;1.83;1.50;;;;;;;35.66;44.75;99032.13;5042045;28;20197;-64
2023/08/04 07:31:06;;;;;;;1.38;1.30;;;;;;;35.54;44.50;99028.50;5046476;28;20672;-65
2023/08/04 07:33:33;;;;;;;2.38;2.10;;;;;;;35.75;44.67;99026.31;5042189;28;20211;-65
2023/08/04 07:36:00;;;;;;;1.55;1.45;;;;;;;36.05;45.12;99023.81;5040549;28;20190;-64
2023/08/04 07:38:29;;;;;;;1.42;1.33;;;;;;;35.90;42.72;99028.66;5044526;28;20192;-65
2023/08/04 07:40:56;;;;;;;1.50;1.40;;;;;;;35.85;42.79;99025.00;5045791;28;20208;-65
2023/08/04 07:43:23;;;;;;;0.85;0.85;;;;;;;35.86;42.13;99022.16;5040997;28;20254;-65
2023/08/04 07:45:50;;;;;;;1.40;1.30;;;;;;;35.90;42.32;99017.97;5046355;28;20209;-66
2023/08/04 07:48:17;;;;;;;1.10;1.10;;;;;;;35.90;42.41;99012.66;5037354;28;20271;-65
2023/08/04 07:50:46;;;;;;;1.58;0.88;;;;;;;35.84;41.87;98992.19;5047727;28;20259;-64
2023/08/04 07:53:13;;;;;;;1.65;1.55;;;;;;;36.17;41.30;99008.75;5051591;28;20193;-64
2023/08/04 07:55:41;;;;;;;1.30;1.30;;;;;;;36.16;41.06;99012.44;5040972;28;20602;-65
2023/08/04 07:58:08;;;;;;;2.25;1.40;;;;;;;36.32;41.24;99011.88;5039759;28;20212;-64
2023/08/04 08:00:35;;;;;;;1.35;1.27;;;;;;;36.43;40.45;99009.50;5041507;28;20200;-64
2023/08/04 08:03:02;;;;;;;1.63;1.52;;;;;;;36.64;40.69;99009.91;5050992;28;20216;-65
2023/08/04 08:05:29;;;;;;;1.55;1.45;;;;;;;36.55;40.45;99002.41;5046577;28;20668;-64
2023/08/04 08:07:56;;;;;;;1.23;1.13;;;;;;;36.18;41.64;98999.72;5043115;28;20200;-65
2023/08/04 08:10:23;;;;;;;1.95;1.85;;;;;;;36.09;41.73;99003.69;5042957;28;20669;-65
2023/08/04 08:12:51;;;;;;;1.38;1.27;;;;;;;36.33;41.97;98997.50;5041618;28;20197;-66
2023/08/04 08:15:18;;;;;;;1.38;1.30;;;;;;;36.53;41.13;98997.31;5042499;28;20201;-65
2023/08/04 08:17:45;;;;;;;1.08;0.98;;;;;;;36.70;41.23;98986.84;5042708;28;20224;-63
2023/08/04 08:20:12;;;;;;;1.15;1.05;;;;;;;36.69;41.46;98996.72;5049330;28;20272;-64
2023/08/04 08:22:38;;;;;;;1.08;1.02;;;;;;;36.38;42.10;98998.69;5046465;28;20201;-64
2023/08/04 08:25:06;;;;;;;1.25;1.15;;;;;;;36.31;42.15;98994.25;5045031;28;20229;-64
2023/08/04 08:27:33;;;;;;;1.83;1.30;;;;;;;36.48;41.78;98988.31;5041307;28;20196;-63
2023/08/04 08:30:01;;;;;;;1.67;1.10;;;;;;;36.71;42.30;98983.13;5048388;28;20555;-65
2023/08/04 08:32:28;;;;;;;1.30;1.20;;;;;;;36.26;42.44;98986.06;5036137;28;20209;-64
2023/08/04 08:34:54;;;;;;;1.45;1.35;;;;;;;36.14;44.56;98982.50;5039046;28;20224;-64
2023/08/04 08:37:21;;;;;;;2.08;1.38;;;;;;;36.13;44.19;98980.03;5044551;28;20200;-63
2023/08/04 08:39:48;;;;;;;1.15;1.15;;;;;;;36.45;43.96;98981.53;5048351;28;20212;-64
2023/08/04 08:42:15;;;;;;;1.65;1.45;;;;;;;36.56;43.36;98982.69;5041411;28;20224;-65
2023/08/04 08:44:42;;;;;;;1.90;1.80;;;;;;;36.50;43.58;98972.88;5041522;28;20740;-64
2023/08/04 08:47:10;;;;;;;1.67;1.40;;;;;;;36.54;44.35;98971.44;5035498;28;20223;-63
2023/08/04 08:49:45;;;;;;;2.20;2.10;;;;;;;36.38;44.00;98962.13;5044255;28;20208;-64
2023/08/04 08:52:12;;;;;;;2.65;2.35;;;;;;;36.30;45.79;98970.44;5037656;28;20592;-65
2023/08/04 08:54:39;;;;;;;2.42;2.33;;;;;;;36.37;44.43;98970.34;5043918;28;20200;-64
2023/08/04 08:57:07;;;;;;;1.20;1.20;;;;;;;36.63;44.19;98965.56;5045403;28;20193;-64
2023/08/04 08:59:34;;;;;;;1.75;1.65;;;;;;;36.96;44.10;98958.97;5040228;28;20216;-63
2023/08/04 09:02:02;;;;;;;1.23;1.23;;;;;;;37.01;44.11;98959.94;5039934;28;20198;-64
2023/08/04 09:04:33;;;;;;;1.55;1.45;;;;;;;36.58;43.53;98962.72;5044742;28;20292;-63
2023/08/04 09:07:00;;;;;;;1.55;1.48;;;;;;;36.36;44.14;98953.50;5050776;28;20212;-64
2023/08/04 09:09:27;;;;;;;1.77;1.50;;;;;;;36.43;45.62;98953.44;5045860;28;20637;-63
2023/08/04 09:11:56;;;;;;;1.73;1.63;;;;;;;36.42;45.00;98946.47;5039160;28;20739;-64
2023/08/04 09:14:22;;;;;;;1.17;1.17;;;;;;;36.83;45.67;98946.63;5037206;28;20204;-63
2023/08/04 09:16:49;;;;;;;1.90;1.33;;;;;;;37.16;44.01;98949.66;5047423;28;20220;-64
2023/08/04 09:19:16;;;;;;;1.30;1.20;;;;;;;37.37;45.07;98934.94;5052174;28;20259;-64
2023/08/04 09:21:45;;;;;;;1.20;1.20;;;;;;;37.57;44.17;98934.66;5052130;28;20211;-64
2023/08/04 09:24:13;;;;;;;1.40;1.40;;;;;;;37.71;44.43;98936.06;5051687;28;20201;-64
2023/08/04 09:26:43;;;;;;;1.60;1.55;;;;;;;37.66;44.07;98938.63;5051654;28;20221;-64
2023/08/04 09:29:10;;;;;;;1.70;1.60;;;;;;;37.72;43.75;98937.69;5043507;28;20212;-64
2023/08/04 09:31:37;;;;;;;1.20;1.20;;;;;;;37.75;43.53;98930.00;5050974;28;20217;-64
2023/08/04 09:34:06;;;;;;;1.60;1.50;;;;;;;37.78;42.45;98931.41;5051099;28;20274;-64
2023/08/04 09:36:39;;;;;;;1.65;1.55;;;;;;;37.95;42.30;98937.72;5050682;28;20204;-63
2023/08/04 09:39:09;;;;;;;2.00;1.90;;;;;;;37.62;41.21;98924.06;5050829;28;20224;-64
2023/08/04 09:41:39;;;;;;;2.20;2.00;;;;;;;37.62;42.76;98927.56;5050497;28;20197;-63
2023/08/04 09:44:07;;;;;;;1.38;1.27;;;;;;;37.29;41.90;98921.91;5050265;28;20208;-64
2023/08/04 09:46:39;;;;;;;1.63;1.52;;;;;;;37.28;42.75;98914.94;5051361;28;20593;-65
2023/08/04 09:49:06;;;;;;;1.55;1.10;;;;;;;37.32;42.67;98919.56;5051445;28;20709;-64
2023/08/04 09:51:40;;;;;;;1.52;1.40;;;;;;;37.45;41.14;98923.09;5051091;28;20692;-64
2023/08/04 09:54:08;;;;;;;1.70;1.60;;;;;;;37.55;41.01;98912.66;5050163;28;20307;-64
2023/08/04 09:56:35;;;;;;;1.60;1.50;;;;;;;37.62;41.48;98905.34;5051072;28;20200;-65
2023/08/04 09:59:03;;;;;;;3.08;1.52;;;;;;;37.49;40.63;98909.06;5050766;28;20196;-65
2023/08/04 10:01:30;;;;;;;1.27;1.17;;;;;;;37.31;40.82;98920.66;5050599;28;20200;-64
2023/08/04 10:03:58;;;;;;;1.33;1.33;;;;;;;37.16;40.67;98893.50;5051098;28;20790;-64
2023/08/04 10:06:25;;;;;;;1.40;1.40;;;;;;;37.54;40.04;98919.06;5051061;28;20692;-64
2023/08/04 10:08:54;;;;;;;1.20;1.20;;;;;;;37.53;40.16;98904.06;5051298;28;20287;-64
2023/08/04 10:11:23;;;;;;;1.42;1.42;;;;;;;37.44;41.66;98903.56;5050968;28;20204;-64
2023/08/04 10:13:54;;;;;;;1.65;1.55;;;;;;;37.53;42.97;98901.38;5048364;28;20250;-65
2023/08/04 10:16:24;;;;;;;1.48;1.45;;;;;;;37.60;43.06;98902.09;5050555;28;20247;-64
2023/08/04 10:18:53;;;;;;;1.38;1.38;;;;;;;37.80;39.94;98902.56;5051132;28;20193;-64
2023/08/04 10:21:22;;;;;;;1.38;1.38;;;;;;;37.80;40.99;98895.38;5050557;28;20665;-65
2023/08/04 10:23:51;;;;;;;1.60;1.50;;;;;;;37.78;41.26;98872.53;5050835;28;20602;-64
2023/08/04 10:26:18;;;;;;;2.05;1.45;;;;;;;37.92;40.48;98903.41;5050699;28;20223;-64
2023/08/04 10:29:01;;;;;;;2.25;1.73;;;;;;;37.88;40.09;98894.16;5050467;28;20205;-63
2023/08/04 10:31:45;;;;;;;1.08;1.08;;;;;;;37.90;40.62;98881.41;5050919;28;20246;-64
2023/08/04 10:34:16;;;;;;;1.60;1.50;;;;;;;38.14;40.65;98883.00;5050903;28;20205;-64
2023/08/04 10:36:55;;;;;;;1.70;1.60;;;;;;;38.27;40.55;98888.09;5050548;28;20192;-64
2023/08/04 10:39:32;;;;;;;2.08;1.98;;;;;;;38.15;40.50;98878.47;5050268;28;20252;-65
2023/08/04 10:41:59;;;;;;;1.65;1.55;;;;;;;38.22;38.98;98885.31;5049263;28;20200;-64
2023/08/04 10:44:31;;;;;;;1.95;1.30;;;;;;;38.32;39.59;98876.69;5050614;28;20200;-65
2023/08/04 10:47:04;;;;;;;1.58;1.48;;;;;;;38.53;39.08;98869.88;5049983;28;20235;-65
2023/08/04 10:49:32;;;;;;;1.40;1.30;;;;;;;38.46;39.70;98858.47;5050701;28;20279;-64
2023/08/04 10:52:00;;;;;;;1.45;1.35;;;;;;;38.68;38.91;98862.91;5050790;28;20207;-63
2023/08/04 10:54:26;;;;;;;1.25;1.25;;;;;;;38.78;40.31;98867.66;5050810;28;20233;-64
2023/08/04 10:56:53;;;;;;;1.58;1.23;;;;;;;38.90;39.98;98859.59;5050927;28;20251;-64
2023/08/04 10:59:20;;;;;;;1.35;1.35;;;;;;;38.90;38.67;98847.00;5050743;28;20196;-65
2023/08/04 11:01:49;;;;;;;1.85;1.75;;;;;;;38.97;38.03;98855.69;5050718;28;20689;-64
2023/08/04 11:04:16;;;;;;;1.92;1.33;;;;;;;39.18;38.88;98841.56;5048854;28;20197;-65
2023/08/04 11:06:44;;;;;;;2.08;1.08;;;;;;;39.38;37.59;98829.56;5050642;28;20215;-64
2023/08/04 11:09:11;;;;;;;1.08;1.08;;;;;;;39.43;38.40;98826.94;5050680;28;20585;-64
2023/08/04 11:11:38;;;;;;;1.30;1.25;;;;;;;39.54;37.47;98823.34;5050058;28;20201;-64
2023/08/04 11:14:07;;;;;;;2.25;1.15;;;;;;;39.26;36.35;98818.94;5050118;28;20205;-64
2023/08/04 11:16:35;;;;;;;1.80;1.70;;;;;;;38.94;37.15;98802.56;5045710;28;20225;-64
2023/08/04 11:19:07;;;;;;;1.30;1.30;;;;;;;39.03;37.05;98814.53;5042189;28;20201;-63
2023/08/04 11:21:34;;;;;;;1.50;1.40;;;;;;;39.12;37.08;98801.50;5036747;28;20197;-64
2023/08/04 11:24:00;;;;;;;1.63;1.52;;;;;;;39.30;36.03;98801.28;5041817;28;20193;-63
2023/08/04 11:26:29;;;;;;;2.35;1.33;;;;;;;39.46;36.14;98795.06;5045596;28;20213;-63
2023/08/04 11:28:59;;;;;;;1.70;1.60;;;;;;;39.70;32.90;98795.69;5035562;28;20283;-65
2023/08/04 11:31:27;;;;;;;1.45;1.35;;;;;;;39.61;33.17;98789.13;5041837;28;20201;-65
2023/08/04 11:33:53;;;;;;;4.13;1.25;;;;;;;39.53;33.59;98778.78;5041947;28;20233;-64
2023/08/04 11:36:25;;;;;;;1.08;1.08;;;;;;;39.42;33.15;98777.06;5042314;28;20208;-65